tititudorancea.com
Station Historical Data
Daily Summary for February 14, 2018 Units:  Both    English   Metric
« Previous Day
Next Day »
Daily Weekly Monthly Yearly Custom
  High: Low: Average:
Temperature: TemperatureF °F /  -17.8 °C 56.3 °F /  13.5 °C 63.6 °F /  17.6 °C
Dew Point: DewpointF °F /  -17.8 °C 35.7 °F /  2.1 °C 43.9 °F /  6.6 °C
Humidity: Humidity % 28 % 51 %
Wind Speed: WindSpeedMPH mph /  0 km/h - 9.2 mph /  14.8 km/h
Wind Gust: WindSpeedGustMPH mph /  0 km/h - -
Wind:- - West
Pressure: PressureIn in /  0 hPa 29.54 in /  1000.2 hPa -
Precipitation: 0.02 in /  0.51 mm    
Historical Graphs
 
 
Ararat weather Find more about Weather in Ararat, AU


 



 


Tabular Data for February 14, 2018
Time Temperature Dew Point Pressure Wind Wind Speed Wind Gust Humidity Rainfall Rate (Hourly)
TemperatureF °F /  -17.8 °C DewpointF °F /  -17.8 °C PressureIn in /  0 hPa Calm     Humidity % HourlyPrecipIn in /  0 mm
00:01 61.1 °F /  16.2 °C 51.2 °F /  10.7 °C 29.66 in /  1004.3 hPa Calm     70 % 0.00 in /  0 mm
00:06 60.8 °F /  16 °C 51.0 °F /  10.6 °C 29.65 in /  1003.9 hPa Calm     70 % 0.00 in /  0 mm
00:11 60.6 °F /  15.9 °C 50.8 °F /  10.4 °C 29.65 in /  1003.9 hPa Calm     70 % 0.00 in /  0 mm
00:16 60.4 °F /  15.8 °C 50.6 °F /  10.3 °C 29.65 in /  1003.9 hPa Calm     70 % 0.00 in /  0 mm
00:21 60.2 °F /  15.7 °C 50.8 °F /  10.4 °C 29.65 in /  1003.9 hPa Calm     71 % 0.00 in /  0 mm
00:26 60.0 °F /  15.6 °C 50.6 °F /  10.3 °C 29.65 in /  1003.9 hPa Calm     71 % 0.00 in /  0 mm
00:31 59.9 °F /  15.5 °C 50.8 °F /  10.4 °C 29.65 in /  1003.9 hPa Calm     72 % 0.00 in /  0 mm
00:36 59.8 °F /  15.4 °C 50.8 °F /  10.4 °C 29.64 in /  1003.6 hPa Calm     72 % 0.00 in /  0 mm
00:42 59.9 °F /  15.5 °C 50.8 °F /  10.4 °C 29.64 in /  1003.6 hPa South 1.8 mph /  2.9 km/h 2.3 mph /  3.7 km/h 72 % 0.00 in /  0 mm
00:47 59.9 °F /  15.5 °C 50.8 °F /  10.4 °C 29.63 in /  1003.3 hPa South 0.8 mph /  1.3 km/h 2.3 mph /  3.7 km/h 72 % 0.00 in /  0 mm
00:52 59.7 °F /  15.4 °C 50.7 °F /  10.4 °C 29.63 in /  1003.3 hPa North 2.2 mph /  3.5 km/h 3.5 mph /  5.6 km/h 72 % 0.00 in /  0 mm
00:57 59.7 °F /  15.4 °C 50.7 °F /  10.4 °C 29.63 in /  1003.3 hPa South 0.4 mph /  0.6 km/h 1.2 mph /  1.9 km/h 72 % 0.00 in /  0 mm
01:02 59.7 °F /  15.4 °C 51.0 °F /  10.6 °C 29.63 in /  1003.3 hPa Calm     73 % 0.00 in /  0 mm
01:07 59.6 °F /  15.3 °C 50.9 °F /  10.5 °C 29.63 in /  1003.3 hPa South 0.4 mph /  0.6 km/h 3.5 mph /  5.6 km/h 73 % 0.00 in /  0 mm
01:12 59.6 °F /  15.3 °C 50.9 °F /  10.5 °C 29.63 in /  1003.3 hPa Calm     73 % 0.00 in /  0 mm
01:17 59.6 °F /  15.3 °C 50.9 °F /  10.5 °C 29.62 in /  1002.9 hPa South 2.1 mph /  3.4 km/h 3.5 mph /  5.6 km/h 73 % 0.00 in /  0 mm
01:22 59.5 °F /  15.3 °C 50.8 °F /  10.4 °C 29.62 in /  1002.9 hPa North 0.5 mph /  0.8 km/h 1.2 mph /  1.9 km/h 73 % 0.00 in /  0 mm
01:27 59.5 °F /  15.3 °C 50.8 °F /  10.4 °C 29.61 in /  1002.6 hPa South 1.7 mph /  2.7 km/h 3.5 mph /  5.6 km/h 73 % 0.00 in /  0 mm
01:32 59.6 °F /  15.3 °C 51.3 °F /  10.7 °C 29.61 in /  1002.6 hPa South 2.5 mph /  4 km/h 3.5 mph /  5.6 km/h 74 % 0.00 in /  0 mm
01:37 59.9 °F /  15.5 °C 51.2 °F /  10.7 °C 29.60 in /  1002.3 hPa South 0.4 mph /  0.6 km/h 3.5 mph /  5.6 km/h 73 % 0.00 in /  0 mm
01:41 60.1 °F /  15.6 °C 51.4 °F /  10.8 °C 29.60 in /  1002.3 hPa North 2.3 mph /  3.7 km/h 3.5 mph /  5.6 km/h 73 % 0.00 in /  0 mm
01:46 60.3 °F /  15.7 °C 51.6 °F /  10.9 °C 29.60 in /  1002.3 hPa North 2.1 mph /  3.4 km/h 3.5 mph /  5.6 km/h 73 % 0.00 in /  0 mm
01:51 60.7 °F /  15.9 °C 52.0 °F /  11.1 °C 29.59 in /  1001.9 hPa North 1.2 mph /  1.9 km/h 4.6 mph /  7.4 km/h 73 % 0.00 in /  0 mm
01:56 60.9 °F /  16.1 °C 51.8 °F /  11 °C 29.59 in /  1001.9 hPa South 0.6 mph /  1 km/h 2.3 mph /  3.7 km/h 72 % 0.00 in /  0 mm
02:02 61.0 °F /  16.1 °C 51.9 °F /  11.1 °C 29.59 in /  1001.9 hPa South 2.6 mph /  4.2 km/h 3.5 mph /  5.6 km/h 72 % 0.00 in /  0 mm
02:06 61.2 °F /  16.2 °C 52.1 °F /  11.2 °C 29.59 in /  1001.9 hPa North 2.3 mph /  3.7 km/h 3.5 mph /  5.6 km/h 72 % 0.00 in /  0 mm
02:12 61.3 °F /  16.3 °C 51.8 °F /  11 °C 29.59 in /  1001.9 hPa South 1.4 mph /  2.3 km/h 4.6 mph /  7.4 km/h 71 % 0.00 in /  0 mm
02:17 61.5 °F /  16.4 °C 52.0 °F /  11.1 °C 29.59 in /  1001.9 hPa South 3.5 mph /  5.6 km/h 3.5 mph /  5.6 km/h 71 % 0.00 in /  0 mm
02:22 61.8 °F /  16.6 °C 51.5 °F /  10.8 °C 29.59 in /  1001.9 hPa South 2.4 mph /  3.9 km/h 4.0 mph /  6.4 km/h 69 % 0.00 in /  0 mm
02:27 62.7 °F /  17.1 °C 51.2 °F /  10.7 °C 29.59 in /  1001.9 hPa WSW 4.4 mph /  7.1 km/h 8.1 mph /  13 km/h 66 % 0.00 in /  0 mm
02:31 63.9 °F /  17.7 °C 50.6 °F /  10.3 °C 29.59 in /  1001.9 hPa North 3.2 mph /  5.1 km/h 5.8 mph /  9.3 km/h 62 % 0.00 in /  0 mm
02:36 64.3 °F /  17.9 °C 50.1 °F /  10.1 °C 29.59 in /  1001.9 hPa NW 4.6 mph /  7.4 km/h 8.1 mph /  13 km/h 60 % 0.00 in /  0 mm
02:41 64.3 °F /  17.9 °C 50.1 °F /  10.1 °C 29.59 in /  1001.9 hPa North 4.8 mph /  7.7 km/h 8.1 mph /  13 km/h 60 % 0.00 in /  0 mm
02:46 64.1 °F /  17.8 °C 49.5 °F /  9.7 °C 29.59 in /  1001.9 hPa NNW 5.9 mph /  9.5 km/h 10.4 mph /  16.7 km/h 59 % 0.00 in /  0 mm
02:51 63.7 °F /  17.6 °C 49.1 °F /  9.5 °C 29.58 in /  1001.6 hPa NNW 5.3 mph /  8.5 km/h 11.5 mph /  18.5 km/h 59 % 0.00 in /  0 mm
02:56 63.3 °F /  17.4 °C 49.2 °F /  9.6 °C 29.58 in /  1001.6 hPa NNW 7.8 mph /  12.6 km/h 10.4 mph /  16.7 km/h 60 % 0.00 in /  0 mm
03:02 63.0 °F /  17.2 °C 48.9 °F /  9.4 °C 29.58 in /  1001.6 hPa NNW 5.1 mph /  8.2 km/h 8.1 mph /  13 km/h 60 % 0.00 in /  0 mm
03:07 62.7 °F /  17.1 °C 49.1 °F /  9.5 °C 29.57 in /  1001.2 hPa North 5.9 mph /  9.5 km/h 9.2 mph /  14.8 km/h 61 % 0.00 in /  0 mm
03:12 62.4 °F /  16.9 °C 48.8 °F /  9.3 °C 29.57 in /  1001.2 hPa North 5.5 mph /  8.9 km/h 8.1 mph /  13 km/h 61 % 0.00 in /  0 mm
03:17 62.2 °F /  16.8 °C 49.0 °F /  9.4 °C 29.57 in /  1001.2 hPa NNW 5.2 mph /  8.4 km/h 7.0 mph /  11.3 km/h 62 % 0.00 in /  0 mm
03:22 62.1 °F /  16.7 °C 48.5 °F /  9.2 °C 29.57 in /  1001.2 hPa NNW 6.8 mph /  10.9 km/h 8.1 mph /  13 km/h 61 % 0.00 in /  0 mm
03:27 62.2 °F /  16.8 °C 48.6 °F /  9.2 °C 29.56 in /  1000.9 hPa NNW 6.4 mph /  10.3 km/h 10.4 mph /  16.7 km/h 61 % 0.00 in /  0 mm
03:32 62.2 °F /  16.8 °C 48.6 °F /  9.2 °C 29.56 in /  1000.9 hPa North 4.8 mph /  7.7 km/h 6.9 mph /  11.1 km/h 61 % 0.00 in /  0 mm
03:37 62.1 °F /  16.7 °C 48.9 °F /  9.4 °C 29.56 in /  1000.9 hPa NNW 6.7 mph /  10.8 km/h 9.2 mph /  14.8 km/h 62 % 0.00 in /  0 mm
03:42 62.2 °F /  16.8 °C 49.0 °F /  9.4 °C 29.56 in /  1000.9 hPa NNW 5.8 mph /  9.3 km/h 11.5 mph /  18.5 km/h 62 % 0.00 in /  0 mm
03:47 62.5 °F /  16.9 °C 49.3 °F /  9.6 °C 29.56 in /  1000.9 hPa NW 6.5 mph /  10.5 km/h 6.9 mph /  11.1 km/h 62 % 0.00 in /  0 mm
03:52 62.9 °F /  17.2 °C 49.2 °F /  9.6 °C 29.57 in /  1001.2 hPa NW 7.3 mph /  11.7 km/h 10.4 mph /  16.7 km/h 61 % 0.00 in /  0 mm
03:57 64.9 °F /  18.3 °C 49.3 °F /  9.6 °C 29.57 in /  1001.2 hPa NW 16.3 mph /  26.2 km/h 17.3 mph /  27.8 km/h 57 % 0.00 in /  0 mm
04:02 68.2 °F /  20.1 °C 48.8 °F /  9.3 °C 29.56 in /  1000.9 hPa North 10.3 mph /  16.6 km/h 17.3 mph /  27.8 km/h 50 % 0.00 in /  0 mm
04:07 69.3 °F /  20.7 °C 48.8 °F /  9.3 °C 29.56 in /  1000.9 hPa NW 7.2 mph /  11.6 km/h 9.0 mph /  14.5 km/h 48 % 0.00 in /  0 mm
04:12 68.0 °F /  20 °C 49.2 °F /  9.6 °C 29.55 in /  1000.6 hPa North 5.9 mph /  9.5 km/h 9.2 mph /  14.8 km/h 51 % 0.00 in /  0 mm
04:17 66.3 °F /  19.1 °C 48.7 °F /  9.3 °C 29.55 in /  1000.6 hPa NNW 4.4 mph /  7.1 km/h 8.1 mph /  13 km/h 53 % 0.00 in /  0 mm
04:22 64.8 °F /  18.2 °C 48.7 °F /  9.3 °C 29.55 in /  1000.6 hPa North 4.5 mph /  7.2 km/h 8.1 mph /  13 km/h 56 % 0.00 in /  0 mm
04:27 64.1 °F /  17.8 °C 49.0 °F /  9.4 °C 29.55 in /  1000.6 hPa NW 5.7 mph /  9.2 km/h 10.4 mph /  16.7 km/h 58 % 0.00 in /  0 mm
04:32 63.8 °F /  17.7 °C 48.7 °F /  9.3 °C 29.54 in /  1000.2 hPa NNW 4.8 mph /  7.7 km/h 8.1 mph /  13 km/h 58 % 0.00 in /  0 mm
04:37 63.7 °F /  17.6 °C 48.6 °F /  9.2 °C 29.54 in /  1000.2 hPa North 7.5 mph /  12.1 km/h 8.1 mph /  13 km/h 58 % 0.00 in /  0 mm
04:42 63.5 °F /  17.5 °C 48.9 °F /  9.4 °C 29.55 in /  1000.6 hPa NNW 9.2 mph /  14.8 km/h 11.5 mph /  18.5 km/h 59 % 0.00 in /  0 mm
04:47 63.5 °F /  17.5 °C 48.9 °F /  9.4 °C 29.55 in /  1000.6 hPa NW 8.0 mph /  12.9 km/h 11.5 mph /  18.5 km/h 59 % 0.00 in /  0 mm
04:52 63.8 °F /  17.7 °C 48.7 °F /  9.3 °C 29.54 in /  1000.2 hPa North 5.8 mph /  9.3 km/h 11.5 mph /  18.5 km/h 58 % 0.00 in /  0 mm
04:57 64.1 °F /  17.8 °C 49.0 °F /  9.4 °C 29.55 in /  1000.6 hPa NNW 7.1 mph /  11.4 km/h 11.5 mph /  18.5 km/h 58 % 0.00 in /  0 mm
05:02 64.4 °F /  18 °C 49.3 °F /  9.6 °C 29.55 in /  1000.6 hPa NNW 5.9 mph /  9.5 km/h 11.5 mph /  18.5 km/h 58 % 0.00 in /  0 mm
05:07 64.7 °F /  18.2 °C 49.1 °F /  9.5 °C 29.56 in /  1000.9 hPa NNW 5.6 mph /  9 km/h 10.4 mph /  16.7 km/h 57 % 0.00 in /  0 mm
05:12 65.1 °F /  18.4 °C 50.9 °F /  10.5 °C 29.57 in /  1001.2 hPa NW 7.2 mph /  11.6 km/h 13.0 mph /  20.9 km/h 60 % 0.01 in /  0.25 mm
05:17 64.3 °F /  17.9 °C 50.6 °F /  10.3 °C 29.57 in /  1001.2 hPa North 6.1 mph /  9.8 km/h 9.2 mph /  14.8 km/h 61 % 0.01 in /  0.25 mm
05:22 64.5 °F /  18.1 °C 50.7 °F /  10.4 °C 29.56 in /  1000.9 hPa North 10.1 mph /  16.3 km/h 17.3 mph /  27.8 km/h 61 % 0.01 in /  0.25 mm
05:27 66.5 °F /  19.2 °C 50.8 °F /  10.4 °C 29.55 in /  1000.6 hPa North 12.2 mph /  19.6 km/h 19.6 mph /  31.5 km/h 57 % 0.01 in /  0.25 mm
05:32 67.9 °F /  19.9 °C 50.1 °F /  10.1 °C 29.55 in /  1000.6 hPa WNW 9.1 mph /  14.6 km/h 11.5 mph /  18.5 km/h 53 % 0.01 in /  0.25 mm
05:37 68.3 °F /  20.2 °C 50.5 °F /  10.3 °C 29.56 in /  1000.9 hPa WNW 8.0 mph /  12.9 km/h 11.5 mph /  18.5 km/h 53 % 0.01 in /  0.25 mm
05:42 68.3 °F /  20.2 °C 51.0 °F /  10.6 °C 29.56 in /  1000.9 hPa WNW 16.0 mph /  25.7 km/h 29.9 mph /  48.1 km/h 54 % 0.01 in /  0.25 mm
05:47 68.0 °F /  20 °C 51.2 °F /  10.7 °C 29.56 in /  1000.9 hPa WNW 17.8 mph /  28.6 km/h 24.2 mph /  38.9 km/h 55 % 0.01 in /  0.25 mm
05:52 67.9 °F /  19.9 °C 51.6 °F /  10.9 °C 29.57 in /  1001.2 hPa North 13.6 mph /  21.9 km/h 20.0 mph /  32.2 km/h 56 % 0.01 in /  0.25 mm
05:57 67.8 °F /  19.9 °C 52.0 °F /  11.1 °C 29.56 in /  1000.9 hPa West 14.4 mph /  23.2 km/h 19.6 mph /  31.5 km/h 57 % 0.01 in /  0.25 mm
06:02 67.7 °F /  19.8 °C 52.4 °F /  11.3 °C 29.56 in /  1000.9 hPa NW 14.7 mph /  23.7 km/h 19.6 mph /  31.5 km/h 58 % 0.01 in /  0.25 mm
06:07 67.5 °F /  19.7 °C 52.7 °F /  11.5 °C 29.58 in /  1001.6 hPa NW 12.1 mph /  19.5 km/h 16.1 mph /  25.9 km/h 59 % 0.01 in /  0.25 mm
06:12 67.1 °F /  19.5 °C 53.6 °F /  12 °C 29.57 in /  1001.2 hPa North 16.0 mph /  25.7 km/h 26.5 mph /  42.6 km/h 62 % 0.00 in /  0 mm
06:17 65.5 °F /  18.6 °C 54.2 °F /  12.3 °C 29.58 in /  1001.6 hPa North 13.8 mph /  22.2 km/h 19.6 mph /  31.5 km/h 67 % 0.00 in /  0 mm
06:22 64.9 °F /  18.3 °C 54.5 °F /  12.5 °C 29.58 in /  1001.6 hPa North 15.5 mph /  24.9 km/h 19.6 mph /  31.5 km/h 69 % 0.01 in /  0.25 mm
06:27 64.8 °F /  18.2 °C 54.8 °F /  12.7 °C 29.59 in /  1001.9 hPa North 8.7 mph /  14 km/h 11.5 mph /  18.5 km/h 70 % 0.01 in /  0.25 mm
06:32 64.7 °F /  18.2 °C 55.1 °F /  12.8 °C 29.58 in /  1001.6 hPa WNW 11.3 mph /  18.2 km/h 20.7 mph /  33.3 km/h 71 % 0.01 in /  0.25 mm
06:37 64.6 °F /  18.1 °C 55.4 °F /  13 °C 29.58 in /  1001.6 hPa North 12.2 mph /  19.6 km/h 15.0 mph /  24.1 km/h 72 % 0.01 in /  0.25 mm
06:42 64.5 °F /  18.1 °C 55.3 °F /  12.9 °C 29.59 in /  1001.9 hPa WNW 13.6 mph /  21.9 km/h 19.6 mph /  31.5 km/h 72 % 0.01 in /  0.25 mm
06:47 64.5 °F /  18.1 °C 55.3 °F /  12.9 °C 29.59 in /  1001.9 hPa NW 12.5 mph /  20.1 km/h 20.7 mph /  33.3 km/h 72 % 0.01 in /  0.25 mm
06:52 64.6 °F /  18.1 °C 55.4 °F /  13 °C 29.59 in /  1001.9 hPa North 11.2 mph /  18 km/h 15.0 mph /  24.1 km/h 72 % 0.01 in /  0.25 mm
06:57 64.7 °F /  18.2 °C 55.5 °F /  13.1 °C 29.59 in /  1001.9 hPa North 5.7 mph /  9.2 km/h 11.5 mph /  18.5 km/h 72 % 0.01 in /  0.25 mm
07:02 64.8 °F /  18.2 °C 55.6 °F /  13.1 °C 29.60 in /  1002.3 hPa North 8.4 mph /  13.5 km/h 18.4 mph /  29.6 km/h 72 % 0.01 in /  0.25 mm
07:07 64.8 °F /  18.2 °C 55.6 °F /  13.1 °C 29.60 in /  1002.3 hPa North 7.1 mph /  11.4 km/h 13.0 mph /  20.9 km/h 72 % 0.01 in /  0.25 mm
07:12 64.8 °F /  18.2 °C 55.6 °F /  13.1 °C 29.60 in /  1002.3 hPa WNW 10.2 mph /  16.4 km/h 10.4 mph /  16.7 km/h 72 % 0.01 in /  0.25 mm
07:17 64.9 °F /  18.3 °C 55.7 °F /  13.2 °C 29.61 in /  1002.6 hPa WNW 11.8 mph /  19 km/h 21.0 mph /  33.8 km/h 72 % 0.01 in /  0.25 mm
07:22 64.9 °F /  18.3 °C 54.9 °F /  12.7 °C 29.64 in /  1003.6 hPa West 23.4 mph /  37.7 km/h 28.8 mph /  46.3 km/h 70 % 0.00 in /  0 mm
07:27 61.8 °F /  16.6 °C 53.1 °F /  11.7 °C 29.64 in /  1003.6 hPa North 18.0 mph /  29 km/h 28.8 mph /  46.3 km/h 73 % 0.00 in /  0 mm
07:32 60.3 °F /  15.7 °C 52.7 °F /  11.5 °C 29.65 in /  1003.9 hPa SW 14.3 mph /  23 km/h 28.8 mph /  46.3 km/h 76 % 0.00 in /  0 mm
07:37 59.5 °F /  15.3 °C 52.6 °F /  11.4 °C 29.66 in /  1004.3 hPa WSW 15.8 mph /  25.4 km/h 22.0 mph /  35.4 km/h 78 % 0.00 in /  0 mm
07:42 59.3 °F /  15.2 °C 52.8 °F /  11.6 °C 29.66 in /  1004.3 hPa West 12.4 mph /  20 km/h 22.0 mph /  35.4 km/h 79 % 0.00 in /  0 mm
07:47 59.1 °F /  15.1 °C 52.6 °F /  11.4 °C 29.67 in /  1004.6 hPa North 9.8 mph /  15.8 km/h 16.1 mph /  25.9 km/h 79 % 0.00 in /  0 mm
07:52 58.9 °F /  14.9 °C 52.7 °F /  11.5 °C 29.68 in /  1005 hPa North 14.1 mph /  22.7 km/h 20.7 mph /  33.3 km/h 80 % 0.00 in /  0 mm
07:58 58.0 °F /  14.4 °C 52.5 °F /  11.4 °C 29.69 in /  1005.3 hPa WSW 7.4 mph /  11.9 km/h 16.1 mph /  25.9 km/h 82 % 0.00 in /  0 mm
08:04 57.5 °F /  14.2 °C 52.0 °F /  11.1 °C 29.69 in /  1005.3 hPa SW 10.9 mph /  17.5 km/h 23.0 mph /  37 km/h 82 % 0.00 in /  0 mm
08:18 57.4 °F /  14.1 °C 51.3 °F /  10.7 °C 29.69 in /  1005.3 hPa SW 25.3 mph /  40.7 km/h 25.3 mph /  40.7 km/h 80 % 0.00 in /  0 mm
08:23 57.6 °F /  14.2 °C 50.1 °F /  10.1 °C 29.69 in /  1005.3 hPa WSW 18.4 mph /  29.6 km/h 27.6 mph /  44.4 km/h 76 % 0.00 in /  0 mm
08:28 58.3 °F /  14.6 °C 50.4 °F /  10.2 °C 29.69 in /  1005.3 hPa WSW 16.0 mph /  25.7 km/h 19.6 mph /  31.5 km/h 75 % 0.00 in /  0 mm
08:34 58.9 °F /  14.9 °C 49.9 °F /  9.9 °C 29.69 in /  1005.3 hPa West 18.7 mph /  30.1 km/h 24.2 mph /  38.9 km/h 72 % 0.00 in /  0 mm
08:38 59.2 °F /  15.1 °C 49.4 °F /  9.7 °C 29.69 in /  1005.3 hPa West 21.8 mph /  35.1 km/h 32.2 mph /  51.8 km/h 70 % 0.00 in /  0 mm
08:44 59.3 °F /  15.2 °C 48.3 °F /  9.1 °C 29.69 in /  1005.3 hPa WSW 25.3 mph /  40.7 km/h 25.3 mph /  40.7 km/h 67 % 0.00 in /  0 mm
08:49 59.5 °F /  15.3 °C 48.5 °F /  9.2 °C 29.69 in /  1005.3 hPa WSW 18.7 mph /  30.1 km/h 29.9 mph /  48.1 km/h 67 % 0.00 in /  0 mm
08:54 59.7 °F /  15.4 °C 48.3 °F /  9.1 °C 29.69 in /  1005.3 hPa WSW 18.8 mph /  30.3 km/h 24.0 mph /  38.6 km/h 66 % 0.00 in /  0 mm
08:58 59.5 °F /  15.3 °C 47.7 °F /  8.7 °C 29.69 in /  1005.3 hPa North 14.8 mph /  23.8 km/h 24.2 mph /  38.9 km/h 65 % 0.00 in /  0 mm
09:03 59.8 °F /  15.4 °C 47.6 °F /  8.7 °C 29.70 in /  1005.6 hPa West 17.6 mph /  28.3 km/h 27.6 mph /  44.4 km/h 64 % 0.00 in /  0 mm
09:09 59.9 °F /  15.5 °C 47.3 °F /  8.5 °C 29.70 in /  1005.6 hPa SW 12.8 mph /  20.6 km/h 21.9 mph /  35.2 km/h 63 % 0.00 in /  0 mm
09:14 59.9 °F /  15.5 °C 46.8 °F /  8.2 °C 29.70 in /  1005.6 hPa WSW 18.3 mph /  29.5 km/h 21.9 mph /  35.2 km/h 62 % 0.00 in /  0 mm
09:19 59.9 °F /  15.5 °C 46.4 °F /  8 °C 29.71 in /  1006 hPa SW 21.5 mph /  34.6 km/h 29.9 mph /  48.1 km/h 61 % 0.00 in /  0 mm
09:24 60.0 °F /  15.6 °C 45.6 °F /  7.6 °C 29.71 in /  1006 hPa North 21.8 mph /  35.1 km/h 27.6 mph /  44.4 km/h 59 % 0.00 in /  0 mm
09:28 60.1 °F /  15.6 °C 46.2 °F /  7.9 °C 29.71 in /  1006 hPa West 12.9 mph /  20.8 km/h 17.3 mph /  27.8 km/h 60 % 0.00 in /  0 mm
09:33 60.3 °F /  15.7 °C 45.5 °F /  7.5 °C 29.72 in /  1006.3 hPa North 18.5 mph /  29.8 km/h 26.5 mph /  42.6 km/h 58 % 0.00 in /  0 mm
09:38 60.5 °F /  15.8 °C 45.6 °F /  7.6 °C 29.72 in /  1006.3 hPa WSW 14.6 mph /  23.5 km/h 24.2 mph /  38.9 km/h 58 % 0.00 in /  0 mm
09:43 60.1 °F /  15.6 °C 44.3 °F /  6.8 °C 29.73 in /  1006.7 hPa WSW 19.5 mph /  31.4 km/h 31.1 mph /  50 km/h 56 % 0.00 in /  0 mm
09:49 60.2 °F /  15.7 °C 44.4 °F /  6.9 °C 29.74 in /  1007 hPa North 18.5 mph /  29.8 km/h 24.2 mph /  38.9 km/h 56 % 0.00 in /  0 mm
09:54 60.4 °F /  15.8 °C 45.1 °F /  7.3 °C 29.74 in /  1007 hPa West 11.8 mph /  19 km/h 23.0 mph /  37 km/h 57 % 0.00 in /  0 mm
09:59 60.7 °F /  15.9 °C 44.9 °F /  7.2 °C 29.75 in /  1007.3 hPa WSW 11.1 mph /  17.9 km/h 17.3 mph /  27.8 km/h 56 % 0.00 in /  0 mm
10:04 60.4 °F /  15.8 °C 43.2 °F /  6.2 °C 29.76 in /  1007.7 hPa WSW 21.0 mph /  33.8 km/h 24.2 mph /  38.9 km/h 53 % 0.00 in /  0 mm
10:09 60.3 °F /  15.7 °C 43.6 °F /  6.4 °C 29.76 in /  1007.7 hPa WSW 10.5 mph /  16.9 km/h 20.7 mph /  33.3 km/h 54 % 0.00 in /  0 mm
10:14 60.6 °F /  15.9 °C 43.4 °F /  6.3 °C 29.76 in /  1007.7 hPa WSW 9.9 mph /  15.9 km/h 12.7 mph /  20.4 km/h 53 % 0.00 in /  0 mm
10:19 60.9 °F /  16.1 °C 43.1 °F /  6.2 °C 29.77 in /  1008 hPa WSW 13.2 mph /  21.2 km/h 19.6 mph /  31.5 km/h 52 % 0.00 in /  0 mm
10:24 61.1 °F /  16.2 °C 42.8 °F /  6 °C 29.77 in /  1008 hPa West 14.1 mph /  22.7 km/h 19.6 mph /  31.5 km/h 51 % 0.00 in /  0 mm
10:29 61.3 °F /  16.3 °C 42.5 °F /  5.8 °C 29.77 in /  1008 hPa West 11.9 mph /  19.2 km/h 15.0 mph /  24.1 km/h 50 % 0.00 in /  0 mm
10:34 61.6 °F /  16.4 °C 42.2 °F /  5.7 °C 29.78 in /  1008.4 hPa SW 9.0 mph /  14.5 km/h 18.4 mph /  29.6 km/h 49 % 0.00 in /  0 mm
10:39 61.6 °F /  16.4 °C 42.8 °F /  6 °C 29.78 in /  1008.4 hPa SW 6.8 mph /  10.9 km/h 15.0 mph /  24.1 km/h 50 % 0.00 in /  0 mm
10:44 61.5 °F /  16.4 °C 42.2 °F /  5.7 °C 29.78 in /  1008.4 hPa WSW 12.1 mph /  19.5 km/h 17.0 mph /  27.4 km/h 49 % 0.00 in /  0 mm
10:49 61.8 °F /  16.6 °C 40.8 °F /  4.9 °C 29.78 in /  1008.4 hPa WSW 19.1 mph /  30.7 km/h 24.2 mph /  38.9 km/h 46 % 0.00 in /  0 mm
10:54 62.2 °F /  16.8 °C 40.0 °F /  4.4 °C 29.79 in /  1008.7 hPa WSW 13.7 mph /  22 km/h 19.6 mph /  31.5 km/h 44 % 0.00 in /  0 mm
10:59 62.2 °F /  16.8 °C 40.6 °F /  4.8 °C 29.79 in /  1008.7 hPa North 20.7 mph /  33.3 km/h 24.2 mph /  38.9 km/h 45 % 0.00 in /  0 mm
11:04 62.0 °F /  16.7 °C 41.0 °F /  5 °C 29.79 in /  1008.7 hPa West 14.3 mph /  23 km/h 24.0 mph /  38.6 km/h 46 % 0.00 in /  0 mm
11:09 61.9 °F /  16.6 °C 40.3 °F /  4.6 °C 29.80 in /  1009 hPa West 13.1 mph /  21.1 km/h 28.8 mph /  46.3 km/h 45 % 0.00 in /  0 mm
11:14 62.1 °F /  16.7 °C 40.5 °F /  4.7 °C 29.80 in /  1009 hPa West 15.4 mph /  24.8 km/h 20.0 mph /  32.2 km/h 45 % 0.00 in /  0 mm
11:19 61.6 °F /  16.4 °C 40.6 °F /  4.8 °C 29.80 in /  1009 hPa WSW 10.7 mph /  17.2 km/h 17.3 mph /  27.8 km/h 46 % 0.00 in /  0 mm
11:24 62.0 °F /  16.7 °C 41.0 °F /  5 °C 29.81 in /  1009.4 hPa WSW 15.7 mph /  25.3 km/h 20.7 mph /  33.3 km/h 46 % 0.00 in /  0 mm
11:29 61.9 °F /  16.6 °C 40.9 °F /  4.9 °C 29.81 in /  1009.4 hPa SW 11.2 mph /  18 km/h 15.0 mph /  24.1 km/h 46 % 0.00 in /  0 mm
11:34 62.1 °F /  16.7 °C 39.9 °F /  4.4 °C 29.81 in /  1009.4 hPa West 14.3 mph /  23 km/h 25.3 mph /  40.7 km/h 44 % 0.00 in /  0 mm
11:39 62.6 °F /  17 °C 39.8 °F /  4.3 °C 29.81 in /  1009.4 hPa North 16.1 mph /  25.9 km/h 21.9 mph /  35.2 km/h 43 % 0.00 in /  0 mm
11:44 62.7 °F /  17.1 °C 40.5 °F /  4.7 °C 29.82 in /  1009.7 hPa WSW 7.5 mph /  12.1 km/h 13.0 mph /  20.9 km/h 44 % 0.00 in /  0 mm
11:49 62.8 °F /  17.1 °C 41.1 °F /  5.1 °C 29.82 in /  1009.7 hPa West 11.5 mph /  18.5 km/h 16.1 mph /  25.9 km/h 45 % 0.00 in /  0 mm
11:54 62.8 °F /  17.1 °C 40.5 °F /  4.7 °C 29.82 in /  1009.7 hPa West 9.6 mph /  15.4 km/h 16.1 mph /  25.9 km/h 44 % 0.00 in /  0 mm
11:59 62.8 °F /  17.1 °C 40.5 °F /  4.7 °C 29.82 in /  1009.7 hPa SW 11.2 mph /  18 km/h 17.3 mph /  27.8 km/h 44 % 0.00 in /  0 mm
12:04 63.3 °F /  17.4 °C 41.0 °F /  5 °C 29.82 in /  1009.7 hPa WSW 10.5 mph /  16.9 km/h 16.0 mph /  25.7 km/h 44 % 0.00 in /  0 mm
12:09 63.7 °F /  17.6 °C 40.2 °F /  4.6 °C 29.83 in /  1010 hPa SSW 13.0 mph /  20.9 km/h 21.9 mph /  35.2 km/h 42 % 0.00 in /  0 mm
12:14 63.9 °F /  17.7 °C 40.3 °F /  4.6 °C 29.83 in /  1010 hPa WSW 15.3 mph /  24.6 km/h 19.6 mph /  31.5 km/h 42 % 0.00 in /  0 mm
12:19 63.7 °F /  17.6 °C 40.8 °F /  4.9 °C 29.83 in /  1010 hPa West 12.0 mph /  19.3 km/h 17.0 mph /  27.4 km/h 43 % 0.00 in /  0 mm
12:24 63.4 °F /  17.4 °C 41.7 °F /  5.4 °C 29.83 in /  1010 hPa WSW 7.9 mph /  12.7 km/h 11.5 mph /  18.5 km/h 45 % 0.00 in /  0 mm
12:29 65.1 °F /  18.4 °C 42.6 °F /  5.9 °C 29.83 in /  1010 hPa North 12.0 mph /  19.3 km/h 15.0 mph /  24.1 km/h 44 % 0.00 in /  0 mm
12:34 65.6 °F /  18.7 °C 38.6 °F /  3.7 °C 29.83 in /  1010 hPa WNW 13.3 mph /  21.4 km/h 17.3 mph /  27.8 km/h 37 % 0.00 in /  0 mm
12:39 65.1 °F /  18.4 °C 37.5 °F /  3.1 °C 29.83 in /  1010 hPa WSW 9.3 mph /  15 km/h 12.7 mph /  20.4 km/h 36 % 0.00 in /  0 mm
12:44 64.1 °F /  17.8 °C 38.0 °F /  3.3 °C 29.83 in /  1010 hPa WSW 8.2 mph /  13.2 km/h 12.7 mph /  20.4 km/h 38 % 0.00 in /  0 mm
12:49 64.3 °F /  17.9 °C 38.1 °F /  3.4 °C 29.83 in /  1010 hPa North 8.1 mph /  13 km/h 11.5 mph /  18.5 km/h 38 % 0.00 in /  0 mm
12:54 65.3 °F /  18.5 °C 37.6 °F /  3.1 °C 29.83 in /  1010 hPa WNW 16.1 mph /  25.9 km/h 20.7 mph /  33.3 km/h 36 % 0.00 in /  0 mm
12:59 65.6 °F /  18.7 °C 36.5 °F /  2.5 °C 29.83 in /  1010 hPa SW 10.1 mph /  16.3 km/h 15.0 mph /  24.1 km/h 34 % 0.00 in /  0 mm
13:04 65.6 °F /  18.7 °C 37.2 °F /  2.9 °C 29.84 in /  1010.4 hPa SSW 10.3 mph /  16.6 km/h 15.0 mph /  24.1 km/h 35 % 0.00 in /  0 mm
13:09 64.6 °F /  18.1 °C 36.3 °F /  2.4 °C 29.84 in /  1010.4 hPa West 9.7 mph /  15.6 km/h 12.7 mph /  20.4 km/h 35 % 0.00 in /  0 mm
13:14 65.7 °F /  18.7 °C 36.5 °F /  2.5 °C 29.83 in /  1010 hPa North 16.7 mph /  26.9 km/h 21.9 mph /  35.2 km/h 34 % 0.00 in /  0 mm
13:19 66.5 °F /  19.2 °C 36.5 °F /  2.5 °C 29.84 in /  1010.4 hPa North 10.0 mph /  16.1 km/h 11.5 mph /  18.5 km/h 33 % 0.00 in /  0 mm
13:24 66.7 °F /  19.3 °C 36.7 °F /  2.6 °C 29.84 in /  1010.4 hPa WSW 8.9 mph /  14.3 km/h 15.0 mph /  24.1 km/h 33 % 0.00 in /  0 mm
13:29 66.5 °F /  19.2 °C 35.7 °F /  2.1 °C 29.84 in /  1010.4 hPa North 14.3 mph /  23 km/h 20.7 mph /  33.3 km/h 32 % 0.00 in /  0 mm
13:34 66.0 °F /  18.9 °C 36.8 °F /  2.7 °C 29.84 in /  1010.4 hPa SSW 14.5 mph /  23.3 km/h 23.0 mph /  37 km/h 34 % 0.00 in /  0 mm
13:39 65.6 °F /  18.7 °C 37.2 °F /  2.9 °C 29.84 in /  1010.4 hPa WNW 10.2 mph /  16.4 km/h 18.0 mph /  29 km/h 35 % 0.00 in /  0 mm
13:44 66.5 °F /  19.2 °C 37.2 °F /  2.9 °C 29.84 in /  1010.4 hPa WSW 10.9 mph /  17.5 km/h 12.0 mph /  19.3 km/h 34 % 0.00 in /  0 mm
13:49 67.4 °F /  19.7 °C 37.3 °F /  2.9 °C 29.84 in /  1010.4 hPa North 8.1 mph /  13 km/h 11.5 mph /  18.5 km/h 33 % 0.00 in /  0 mm
13:54 67.6 °F /  19.8 °C 36.7 °F /  2.6 °C 29.84 in /  1010.4 hPa SW 13.0 mph /  20.9 km/h 19.6 mph /  31.5 km/h 32 % 0.00 in /  0 mm
13:59 66.8 °F /  19.3 °C 36.8 °F /  2.7 °C 29.84 in /  1010.4 hPa WSW 13.4 mph /  21.6 km/h 19.6 mph /  31.5 km/h 33 % 0.00 in /  0 mm
14:04 66.5 °F /  19.2 °C 37.2 °F /  2.9 °C 29.84 in /  1010.4 hPa SW 13.5 mph /  21.7 km/h 18.4 mph /  29.6 km/h 34 % 0.00 in /  0 mm
14:09 67.1 °F /  19.5 °C 37.8 °F /  3.2 °C 29.84 in /  1010.4 hPa West 14.6 mph /  23.5 km/h 22.0 mph /  35.4 km/h 34 % 0.00 in /  0 mm
14:14 67.0 °F /  19.4 °C 36.9 °F /  2.7 °C 29.83 in /  1010 hPa WSW 5.5 mph /  8.9 km/h 13.8 mph /  22.2 km/h 33 % 0.00 in /  0 mm
14:19 67.2 °F /  19.6 °C 37.9 °F /  3.3 °C 29.83 in /  1010 hPa West 11.5 mph /  18.5 km/h 15.0 mph /  24.1 km/h 34 % 0.00 in /  0 mm
14:24 67.5 °F /  19.7 °C 38.1 °F /  3.4 °C 29.84 in /  1010.4 hPa North 9.9 mph /  15.9 km/h 15.0 mph /  24.1 km/h 34 % 0.00 in /  0 mm
14:29 67.9 °F /  19.9 °C 37.7 °F /  3.2 °C 29.84 in /  1010.4 hPa West 9.3 mph /  15 km/h 11.5 mph /  18.5 km/h 33 % 0.00 in /  0 mm
14:34 68.2 °F /  20.1 °C 38.0 °F /  3.3 °C 29.84 in /  1010.4 hPa SW 13.0 mph /  20.9 km/h 17.3 mph /  27.8 km/h 33 % 0.00 in /  0 mm
14:39 67.4 °F /  19.7 °C 37.3 °F /  2.9 °C 29.84 in /  1010.4 hPa West 11.6 mph /  18.7 km/h 21.9 mph /  35.2 km/h 33 % 0.00 in /  0 mm
14:44 67.5 °F /  19.7 °C 37.4 °F /  3 °C 29.84 in /  1010.4 hPa WSW 14.1 mph /  22.7 km/h 21.9 mph /  35.2 km/h 33 % 0.00 in /  0 mm
14:49 68.1 °F /  20.1 °C 37.9 °F /  3.3 °C 29.83 in /  1010 hPa WNW 10.5 mph /  16.9 km/h 15.0 mph /  24.1 km/h 33 % 0.00 in /  0 mm
14:54 68.7 °F /  20.4 °C 38.4 °F /  3.6 °C 29.83 in /  1010 hPa West 12.6 mph /  20.3 km/h 21.9 mph /  35.2 km/h 33 % 0.00 in /  0 mm
14:59 68.6 °F /  20.3 °C 37.5 °F /  3.1 °C 29.83 in /  1010 hPa WSW 15.0 mph /  24.1 km/h 18.4 mph /  29.6 km/h 32 % 0.00 in /  0 mm
15:04 69.0 °F /  20.6 °C 37.9 °F /  3.3 °C 29.83 in /  1010 hPa SW 10.6 mph /  17.1 km/h 16.1 mph /  25.9 km/h 32 % 0.00 in /  0 mm
15:09 68.7 °F /  20.4 °C 36.8 °F /  2.7 °C 29.83 in /  1010 hPa WSW 13.3 mph /  21.4 km/h 16.1 mph /  25.9 km/h 31 % 0.00 in /  0 mm
15:14 68.5 °F /  20.3 °C 36.7 °F /  2.6 °C 29.83 in /  1010 hPa WSW 10.7 mph /  17.2 km/h 15.0 mph /  24.1 km/h 31 % 0.00 in /  0 mm
15:19 68.4 °F /  20.2 °C 36.6 °F /  2.6 °C 29.83 in /  1010 hPa SW 9.1 mph /  14.6 km/h 11.5 mph /  18.5 km/h 31 % 0.00 in /  0 mm
15:24 69.1 °F /  20.6 °C 37.2 °F /  2.9 °C 29.82 in /  1009.7 hPa West 12.1 mph /  19.5 km/h 18.0 mph /  29 km/h 31 % 0.00 in /  0 mm
15:29 69.4 °F /  20.8 °C 36.6 °F /  2.6 °C 29.83 in /  1010 hPa WSW 15.3 mph /  24.6 km/h 21.9 mph /  35.2 km/h 30 % 0.00 in /  0 mm
15:34 69.8 °F /  21 °C 36.9 °F /  2.7 °C 29.83 in /  1010 hPa WSW 10.2 mph /  16.4 km/h 19.6 mph /  31.5 km/h 30 % 0.00 in /  0 mm
15:39 69.6 °F /  20.9 °C 36.8 °F /  2.7 °C 29.83 in /  1010 hPa West 7.2 mph /  11.6 km/h 11.5 mph /  18.5 km/h 30 % 0.00 in /  0 mm
15:44 69.7 °F /  20.9 °C 36.9 °F /  2.7 °C 29.83 in /  1010 hPa North 10.7 mph /  17.2 km/h 15.0 mph /  24.1 km/h 30 % 0.00 in /  0 mm
15:49 69.9 °F /  21.1 °C 37.0 °F /  2.8 °C 29.83 in /  1010 hPa WSW 14.6 mph /  23.5 km/h 18.4 mph /  29.6 km/h 30 % 0.00 in /  0 mm
15:54 69.5 °F /  20.8 °C 36.7 °F /  2.6 °C 29.83 in /  1010 hPa SW 6.3 mph /  10.1 km/h 8.1 mph /  13 km/h 30 % 0.00 in /  0 mm
15:59 70.2 °F /  21.2 °C 36.4 °F /  2.4 °C 29.83 in /  1010 hPa West 8.4 mph /  13.5 km/h 15.0 mph /  24.1 km/h 29 % 0.00 in /  0 mm
16:04 70.8 °F /  21.6 °C 36.1 °F /  2.3 °C 29.83 in /  1010 hPa WSW 11.8 mph /  19 km/h 16.1 mph /  25.9 km/h 28 % 0.00 in /  0 mm
16:09 70.4 °F /  21.3 °C 36.6 °F /  2.6 °C 29.83 in /  1010 hPa WSW 6.3 mph /  10.1 km/h 13.8 mph /  22.2 km/h 29 % 0.00 in /  0 mm
16:14 70.7 °F /  21.5 °C 36.9 °F /  2.7 °C 29.83 in /  1010 hPa WSW 13.1 mph /  21.1 km/h 16.1 mph /  25.9 km/h 29 % 0.00 in /  0 mm
16:19 70.3 °F /  21.3 °C 36.5 °F /  2.5 °C 29.83 in /  1010 hPa SW 7.5 mph /  12.1 km/h 12.7 mph /  20.4 km/h 29 % 0.00 in /  0 mm
16:24 70.7 °F /  21.5 °C 37.7 °F /  3.2 °C 29.83 in /  1010 hPa SW 11.6 mph /  18.7 km/h 15.0 mph /  24.1 km/h 30 % 0.00 in /  0 mm
16:29 70.2 °F /  21.2 °C 38.1 °F /  3.4 °C 29.83 in /  1010 hPa West 7.9 mph /  12.7 km/h 9.2 mph /  14.8 km/h 31 % 0.00 in /  0 mm
16:34 70.8 °F /  21.6 °C 38.7 °F /  3.7 °C 29.83 in /  1010 hPa SW 5.9 mph /  9.5 km/h 11.5 mph /  18.5 km/h 31 % 0.00 in /  0 mm
16:39 70.7 °F /  21.5 °C 37.7 °F /  3.2 °C 29.83 in /  1010 hPa North 9.0 mph /  14.5 km/h 15.0 mph /  24.1 km/h 30 % 0.00 in /  0 mm
16:44 70.6 °F /  21.4 °C 37.6 °F /  3.1 °C 29.83 in /  1010 hPa SW 10.7 mph /  17.2 km/h 15.0 mph /  24.1 km/h 30 % 0.00 in /  0 mm
16:49 71.0 °F /  21.7 °C 38.0 °F /  3.3 °C 29.83 in /  1010 hPa North 11.3 mph /  18.2 km/h 16.1 mph /  25.9 km/h 30 % 0.00 in /  0 mm
16:54 70.8 °F /  21.6 °C 38.7 °F /  3.7 °C 29.83 in /  1010 hPa WSW 7.4 mph /  11.9 km/h 12.7 mph /  20.4 km/h 31 % 0.00 in /  0 mm
16:59 70.3 °F /  21.3 °C 38.2 °F /  3.4 °C 29.83 in /  1010 hPa SW 11.6 mph /  18.7 km/h 13.8 mph /  22.2 km/h 31 % 0.00 in /  0 mm
17:04 70.0 °F /  21.1 °C 38.8 °F /  3.8 °C 29.83 in /  1010 hPa SW 10.2 mph /  16.4 km/h 16.1 mph /  25.9 km/h 32 % 0.00 in /  0 mm
17:09 70.5 °F /  21.4 °C 38.4 °F /  3.6 °C 29.84 in /  1010.4 hPa SW 8.8 mph /  14.2 km/h 13.0 mph /  20.9 km/h 31 % 0.00 in /  0 mm
17:14 70.7 °F /  21.5 °C 39.4 °F /  4.1 °C 29.83 in /  1010 hPa SW 8.4 mph /  13.5 km/h 11.5 mph /  18.5 km/h 32 % 0.00 in /  0 mm
17:19 71.1 °F /  21.7 °C 38.9 °F /  3.8 °C 29.84 in /  1010.4 hPa WNW 9.6 mph /  15.4 km/h 15.0 mph /  24.1 km/h 31 % 0.00 in /  0 mm
17:24 70.8 °F /  21.6 °C 38.7 °F /  3.7 °C 29.84 in /  1010.4 hPa WSW 9.6 mph /  15.4 km/h 15.0 mph /  24.1 km/h 31 % 0.00 in /  0 mm
17:29 70.3 °F /  21.3 °C 39.8 °F /  4.3 °C 29.84 in /  1010.4 hPa SSW 8.4 mph /  13.5 km/h 11.5 mph /  18.5 km/h 33 % 0.00 in /  0 mm
17:34 70.3 °F /  21.3 °C 39.8 °F /  4.3 °C 29.84 in /  1010.4 hPa SW 8.3 mph /  13.4 km/h 11.5 mph /  18.5 km/h 33 % 0.00 in /  0 mm
17:39 70.2 °F /  21.2 °C 39.7 °F /  4.3 °C 29.84 in /  1010.4 hPa SW 3.6 mph /  5.8 km/h 4.6 mph /  7.4 km/h 33 % 0.00 in /  0 mm
17:44 70.5 °F /  21.4 °C 38.4 °F /  3.6 °C 29.84 in /  1010.4 hPa SW 8.7 mph /  14 km/h 19.6 mph /  31.5 km/h 31 % 0.00 in /  0 mm
17:49 70.4 °F /  21.3 °C 38.3 °F /  3.5 °C 29.84 in /  1010.4 hPa WSW 7.4 mph /  11.9 km/h 11.5 mph /  18.5 km/h 31 % 0.00 in /  0 mm
17:54 70.2 °F /  21.2 °C 38.1 °F /  3.4 °C 29.85 in /  1010.7 hPa North 10.0 mph /  16.1 km/h 12.7 mph /  20.4 km/h 31 % 0.00 in /  0 mm
17:59 70.2 °F /  21.2 °C 38.9 °F /  3.8 °C 29.84 in /  1010.4 hPa SSW 6.3 mph /  10.1 km/h 9.2 mph /  14.8 km/h 32 % 0.00 in /  0 mm
18:04 70.3 °F /  21.3 °C 38.2 °F /  3.4 °C 29.85 in /  1010.7 hPa SW 8.9 mph /  14.3 km/h 16.1 mph /  25.9 km/h 31 % 0.00 in /  0 mm
18:09 70.2 °F /  21.2 °C 38.1 °F /  3.4 °C 29.85 in /  1010.7 hPa SSW 9.3 mph /  15 km/h 13.8 mph /  22.2 km/h 31 % 0.00 in /  0 mm
18:14 70.1 °F /  21.2 °C 38.0 °F /  3.3 °C 29.85 in /  1010.7 hPa SSW 14.1 mph /  22.7 km/h 18.4 mph /  29.6 km/h 31 % 0.00 in /  0 mm
18:19 69.6 °F /  20.9 °C 37.6 °F /  3.1 °C 29.85 in /  1010.7 hPa WSW 9.7 mph /  15.6 km/h 11.5 mph /  18.5 km/h 31 % 0.00 in /  0 mm
18:24 70.0 °F /  21.1 °C 38.0 °F /  3.3 °C 29.85 in /  1010.7 hPa SSW 8.0 mph /  12.9 km/h 11.5 mph /  18.5 km/h 31 % 0.00 in /  0 mm
18:29 70.2 °F /  21.2 °C 37.3 °F /  2.9 °C 29.85 in /  1010.7 hPa SSW 6.8 mph /  10.9 km/h 16.0 mph /  25.7 km/h 30 % 0.00 in /  0 mm
18:34 70.2 °F /  21.2 °C 36.4 °F /  2.4 °C 29.85 in /  1010.7 hPa SSW 8.0 mph /  12.9 km/h 10.4 mph /  16.7 km/h 29 % 0.00 in /  0 mm
18:39 70.4 °F /  21.3 °C 36.6 °F /  2.6 °C 29.85 in /  1010.7 hPa WSW 5.9 mph /  9.5 km/h 10.4 mph /  16.7 km/h 29 % 0.00 in /  0 mm
18:44 70.2 °F /  21.2 °C 36.4 °F /  2.4 °C 29.86 in /  1011.1 hPa SW 7.0 mph /  11.3 km/h 9.2 mph /  14.8 km/h 29 % 0.00 in /  0 mm
18:49 69.9 °F /  21.1 °C 36.2 °F /  2.3 °C 29.85 in /  1010.7 hPa SW 8.4 mph /  13.5 km/h 13.8 mph /  22.2 km/h 29 % 0.00 in /  0 mm
18:54 69.5 °F /  20.8 °C 36.7 °F /  2.6 °C 29.86 in /  1011.1 hPa North 9.2 mph /  14.8 km/h 14.0 mph /  22.5 km/h 30 % 0.00 in /  0 mm
18:59 69.4 °F /  20.8 °C 37.4 °F /  3 °C 29.86 in /  1011.1 hPa WSW 6.9 mph /  11.1 km/h 10.4 mph /  16.7 km/h 31 % 0.00 in /  0 mm
19:04 69.2 °F /  20.7 °C 38.1 °F /  3.4 °C 29.86 in /  1011.1 hPa SW 7.4 mph /  11.9 km/h 9.2 mph /  14.8 km/h 32 % 0.00 in /  0 mm
19:09 68.9 °F /  20.5 °C 38.6 °F /  3.7 °C 29.86 in /  1011.1 hPa SSW 7.7 mph /  12.4 km/h 11.5 mph /  18.5 km/h 33 % 0.00 in /  0 mm
19:14 69.0 °F /  20.6 °C 38.7 °F /  3.7 °C 29.86 in /  1011.1 hPa North 8.5 mph /  13.7 km/h 11.5 mph /  18.5 km/h 33 % 0.00 in /  0 mm
19:19 68.6 °F /  20.3 °C 39.1 °F /  3.9 °C 29.87 in /  1011.4 hPa SW 5.6 mph /  9 km/h 9.2 mph /  14.8 km/h 34 % 0.00 in /  0 mm
19:24 68.4 °F /  20.2 °C 39.7 °F /  4.3 °C 29.87 in /  1011.4 hPa SSW 8.3 mph /  13.4 km/h 15.0 mph /  24.1 km/h 35 % 0.00 in /  0 mm
19:29 67.9 °F /  19.9 °C 39.9 °F /  4.4 °C 29.87 in /  1011.4 hPa SSW 8.6 mph /  13.8 km/h 11.5 mph /  18.5 km/h 36 % 0.00 in /  0 mm
19:34 67.3 °F /  19.6 °C 40.1 °F /  4.5 °C 29.87 in /  1011.4 hPa SSW 9.9 mph /  15.9 km/h 13.8 mph /  22.2 km/h 37 % 0.00 in /  0 mm
19:39 67.1 °F /  19.5 °C 40.6 °F /  4.8 °C 29.87 in /  1011.4 hPa SW 9.4 mph /  15.1 km/h 13.8 mph /  22.2 km/h 38 % 0.00 in /  0 mm
19:44 66.7 °F /  19.3 °C 40.9 °F /  4.9 °C 29.87 in /  1011.4 hPa SW 7.7 mph /  12.4 km/h 11.5 mph /  18.5 km/h 39 % 0.00 in /  0 mm
19:49 66.4 °F /  19.1 °C 40.7 °F /  4.8 °C 29.87 in /  1011.4 hPa SW 5.5 mph /  8.9 km/h 10.4 mph /  16.7 km/h 39 % 0.00 in /  0 mm
19:50 66.4 °F /  19.1 °C 40.7 °F /  4.8 °C 29.87 in /  1011.4 hPa SW 5.2 mph /  8.4 km/h 8.1 mph /  13 km/h 39 % 0.00 in /  0 mm
19:55 66.0 °F /  18.9 °C 41.0 °F /  5 °C 29.88 in /  1011.7 hPa SW 8.9 mph /  14.3 km/h 12.7 mph /  20.4 km/h 40 % 0.00 in /  0 mm
20:00 65.5 °F /  18.6 °C 41.2 °F /  5.1 °C 29.88 in /  1011.7 hPa SW 7.7 mph /  12.4 km/h 13.8 mph /  22.2 km/h 41 % 0.00 in /  0 mm
20:05 65.2 °F /  18.4 °C 41.5 °F /  5.3 °C 29.88 in /  1011.7 hPa WSW 10.4 mph /  16.7 km/h 12.7 mph /  20.4 km/h 42 % 0.00 in /  0 mm
20:10 64.8 °F /  18.2 °C 41.8 °F /  5.4 °C 29.89 in /  1012.1 hPa SW 8.0 mph /  12.9 km/h 15.0 mph /  24.1 km/h 43 % 0.00 in /  0 mm
20:15 64.3 °F /  17.9 °C 41.9 °F /  5.5 °C 29.89 in /  1012.1 hPa SW 7.1 mph /  11.4 km/h 15.0 mph /  24.1 km/h 44 % 0.00 in /  0 mm
20:20 63.9 °F /  17.7 °C 42.1 °F /  5.6 °C 29.89 in /  1012.1 hPa SW 10.4 mph /  16.7 km/h 15.0 mph /  24.1 km/h 45 % 0.00 in /  0 mm
20:25 63.5 °F /  17.5 °C 42.3 °F /  5.7 °C 29.89 in /  1012.1 hPa SW 9.1 mph /  14.6 km/h 13.8 mph /  22.2 km/h 46 % 0.00 in /  0 mm
20:30 63.3 °F /  17.4 °C 42.2 °F /  5.7 °C 29.89 in /  1012.1 hPa North 4.9 mph /  7.9 km/h 8.1 mph /  13 km/h 46 % 0.00 in /  0 mm
20:35 63.0 °F /  17.2 °C 42.4 °F /  5.8 °C 29.90 in /  1012.4 hPa SSW 6.2 mph /  10 km/h 13.8 mph /  22.2 km/h 47 % 0.00 in /  0 mm
20:40 62.7 °F /  17.1 °C 42.2 °F /  5.7 °C 29.90 in /  1012.4 hPa South 10.3 mph /  16.6 km/h 15.0 mph /  24.1 km/h 47 % 0.00 in /  0 mm
20:45 62.6 °F /  17 °C 42.1 °F /  5.6 °C 29.90 in /  1012.4 hPa South 9.7 mph /  15.6 km/h 12.7 mph /  20.4 km/h 47 % 0.00 in /  0 mm
20:50 62.3 °F /  16.8 °C 41.8 °F /  5.4 °C 29.91 in /  1012.8 hPa SSW 9.6 mph /  15.4 km/h 12.7 mph /  20.4 km/h 47 % 0.00 in /  0 mm
20:55 62.1 °F /  16.7 °C 41.6 °F /  5.3 °C 29.90 in /  1012.4 hPa SW 7.1 mph /  11.4 km/h 11.5 mph /  18.5 km/h 47 % 0.00 in /  0 mm
21:00 61.9 °F /  16.6 °C 41.4 °F /  5.2 °C 29.90 in /  1012.4 hPa SSW 5.3 mph /  8.5 km/h 8.1 mph /  13 km/h 47 % 0.00 in /  0 mm
21:05 61.6 °F /  16.4 °C 41.2 °F /  5.1 °C 29.90 in /  1012.4 hPa SW 7.8 mph /  12.6 km/h 11.5 mph /  18.5 km/h 47 % 0.00 in /  0 mm
21:10 61.5 °F /  16.4 °C 41.1 °F /  5.1 °C 29.91 in /  1012.8 hPa SSW 8.7 mph /  14 km/h 11.5 mph /  18.5 km/h 47 % 0.00 in /  0 mm
21:15 61.3 °F /  16.3 °C 40.9 °F /  4.9 °C 29.91 in /  1012.8 hPa SW 7.4 mph /  11.9 km/h 12.7 mph /  20.4 km/h 47 % 0.00 in /  0 mm
21:20 61.2 °F /  16.2 °C 41.3 °F /  5.2 °C 29.91 in /  1012.8 hPa SSW 10.0 mph /  16.1 km/h 13.8 mph /  22.2 km/h 48 % 0.00 in /  0 mm
21:25 61.1 °F /  16.2 °C 41.2 °F /  5.1 °C 29.91 in /  1012.8 hPa North 9.0 mph /  14.5 km/h 11.5 mph /  18.5 km/h 48 % 0.00 in /  0 mm
21:30 60.9 °F /  16.1 °C 41.1 °F /  5.1 °C 29.91 in /  1012.8 hPa SW 9.3 mph /  15 km/h 13.8 mph /  22.2 km/h 48 % 0.00 in /  0 mm
21:35 60.6 °F /  15.9 °C 41.3 °F /  5.2 °C 29.92 in /  1013.1 hPa SW 9.4 mph /  15.1 km/h 11.5 mph /  18.5 km/h 49 % 0.00 in /  0 mm
21:40 60.3 °F /  15.7 °C 42.1 °F /  5.6 °C 29.91 in /  1012.8 hPa SW 9.4 mph /  15.1 km/h 13.8 mph /  22.2 km/h 51 % 0.00 in /  0 mm
21:45 59.9 °F /  15.5 °C 42.2 °F /  5.7 °C 29.91 in /  1012.8 hPa SW 8.7 mph /  14 km/h 11.5 mph /  18.5 km/h 52 % 0.00 in /  0 mm
21:50 59.5 °F /  15.3 °C 41.9 °F /  5.5 °C 29.92 in /  1013.1 hPa SW 9.1 mph /  14.6 km/h 11.5 mph /  18.5 km/h 52 % 0.00 in /  0 mm
21:55 59.2 °F /  15.1 °C 42.1 °F /  5.6 °C 29.92 in /  1013.1 hPa SSW 9.4 mph /  15.1 km/h 14.0 mph /  22.5 km/h 53 % 0.00 in /  0 mm
22:00 58.9 °F /  14.9 °C 41.8 °F /  5.4 °C 29.92 in /  1013.1 hPa SSW 6.1 mph /  9.8 km/h 9.2 mph /  14.8 km/h 53 % 0.00 in /  0 mm
22:05 58.5 °F /  14.7 °C 41.4 °F /  5.2 °C 29.93 in /  1013.4 hPa SSW 4.5 mph /  7.2 km/h 7.0 mph /  11.3 km/h 53 % 0.00 in /  0 mm
22:10 58.3 °F /  14.6 °C 41.2 °F /  5.1 °C 29.93 in /  1013.4 hPa SSW 4.7 mph /  7.6 km/h 6.9 mph /  11.1 km/h 53 % 0.00 in /  0 mm
22:15 58.1 °F /  14.5 °C 41.0 °F /  5 °C 29.93 in /  1013.4 hPa SSW 5.6 mph /  9 km/h 8.1 mph /  13 km/h 53 % 0.00 in /  0 mm
22:20 57.8 °F /  14.3 °C 40.8 °F /  4.9 °C 29.93 in /  1013.4 hPa SSW 8.6 mph /  13.8 km/h 10.4 mph /  16.7 km/h 53 % 0.00 in /  0 mm
22:25 57.7 °F /  14.3 °C 41.2 °F /  5.1 °C 29.93 in /  1013.4 hPa North 8.0 mph /  12.9 km/h 11.5 mph /  18.5 km/h 54 % 0.00 in /  0 mm
22:30 57.5 °F /  14.2 °C 41.0 °F /  5 °C 29.93 in /  1013.4 hPa SSW 6.3 mph /  10.1 km/h 11.5 mph /  18.5 km/h 54 % 0.00 in /  0 mm
22:35 57.3 °F /  14.1 °C 40.8 °F /  4.9 °C 29.93 in /  1013.4 hPa SSW 6.0 mph /  9.7 km/h 6.9 mph /  11.1 km/h 54 % 0.00 in /  0 mm
22:40 57.2 °F /  14 °C 41.2 °F /  5.1 °C 29.94 in /  1013.8 hPa SSW 4.3 mph /  6.9 km/h 6.9 mph /  11.1 km/h 55 % 0.00 in /  0 mm
22:45 57.0 °F /  13.9 °C 41.0 °F /  5 °C 29.94 in /  1013.8 hPa SSW 4.1 mph /  6.6 km/h 8.1 mph /  13 km/h 55 % 0.00 in /  0 mm
22:50 56.8 °F /  13.8 °C 40.8 °F /  4.9 °C 29.94 in /  1013.8 hPa SSW 5.3 mph /  8.5 km/h 7.0 mph /  11.3 km/h 55 % 0.00 in /  0 mm
22:55 56.7 °F /  13.7 °C 41.2 °F /  5.1 °C 29.94 in /  1013.8 hPa SSW 6.8 mph /  10.9 km/h 10.4 mph /  16.7 km/h 56 % 0.00 in /  0 mm
23:00 56.5 °F /  13.6 °C 41.0 °F /  5 °C 29.94 in /  1013.8 hPa SW 6.1 mph /  9.8 km/h 10.4 mph /  16.7 km/h 56 % 0.00 in /  0 mm
23:05 56.4 °F /  13.6 °C 40.9 °F /  4.9 °C 29.93 in /  1013.4 hPa SW 5.2 mph /  8.4 km/h 11.5 mph /  18.5 km/h 56 % 0.00 in /  0 mm
23:10 56.3 °F /  13.5 °C 41.3 °F /  5.2 °C 29.93 in /  1013.4 hPa SSW 5.6 mph /  9 km/h 8.1 mph /  13 km/h 57 % 0.00 in /  0 mm
23:15 56.5 °F /  13.6 °C 41.4 °F /  5.2 °C 29.93 in /  1013.4 hPa SW 4.4 mph /  7.1 km/h 7.0 mph /  11.3 km/h 57 % 0.00 in /  0 mm
23:20 56.5 °F /  13.6 °C 41.4 °F /  5.2 °C 29.93 in /  1013.4 hPa SSW 3.4 mph /  5.5 km/h 4.6 mph /  7.4 km/h 57 % 0.00 in /  0 mm
23:25 56.5 °F /  13.6 °C 41.4 °F /  5.2 °C 29.93 in /  1013.4 hPa SSW 3.3 mph /  5.3 km/h 4.6 mph /  7.4 km/h 57 % 0.00 in /  0 mm
23:30 56.5 °F /  13.6 °C 41.4 °F /  5.2 °C 29.93 in /  1013.4 hPa SSW 4.3 mph /  6.9 km/h 6.9 mph /  11.1 km/h 57 % 0.00 in /  0 mm
23:35 56.5 °F /  13.6 °C 41.9 °F /  5.5 °C 29.93 in /  1013.4 hPa SSW 4.7 mph /  7.6 km/h 8.0 mph /  12.9 km/h 58 % 0.00 in /  0 mm
23:40 56.7 °F /  13.7 °C 42.1 °F /  5.6 °C 29.93 in /  1013.4 hPa North 5.2 mph /  8.4 km/h 6.9 mph /  11.1 km/h 58 % 0.00 in /  0 mm
23:45 56.5 °F /  13.6 °C 41.9 °F /  5.5 °C 29.93 in /  1013.4 hPa SW 3.0 mph /  4.8 km/h 6.9 mph /  11.1 km/h 58 % 0.00 in /  0 mm
23:46 56.5 °F /  13.6 °C 41.9 °F /  5.5 °C 29.93 in /  1013.4 hPa SW 4.5 mph /  7.2 km/h 8.1 mph /  13 km/h 58 % 0.00 in /  0 mm
23:51 56.4 °F /  13.6 °C 41.8 °F /  5.4 °C 29.93 in /  1013.4 hPa SW 5.0 mph /  8 km/h 5.8 mph /  9.3 km/h 58 % 0.00 in /  0 mm
23:56 56.3 °F /  13.5 °C 42.1 °F /  5.6 °C 29.93 in /  1013.4 hPa SW 4.1 mph /  6.6 km/h 5.8 mph /  9.3 km/h 59 % 0.00 in /  0 mm
Ararat Weather
Compliments of Weather Underground - 2.25 mb
Click here to send mail.


ABOUT

Live weather data from Ararat, Victoria, Australia, 3377
Data uploaded from Cumulus every 5 minutes to Weather Underground.
This site then downloads the raw data for formatting and display.
Metric and imperial data can be displayed. Graphs and historical data available.
Includes Sun and Moon times and rain image live from BOM.

Check out Ararat Weather on Facebook, Twitter and Google +

Help support ongoing costs by checking out the ads





Follow @AraratWeather